createdAt,value
2018-12-26T03:01:40.018Z,72.60
2018-12-26T03:04:09.284Z,73.10
2018-12-26T03:06:38.580Z,73.30
2018-12-26T03:09:07.841Z,74.20
2018-12-26T03:11:37.165Z,73.60
2018-12-26T03:14:06.817Z,73.10
2018-12-26T03:16:37.026Z,73.10
2018-12-26T03:19:06.915Z,73.30
2018-12-26T03:21:36.171Z,72.70
2018-12-26T03:24:06.173Z,72.80
2018-12-26T03:26:35.470Z,72.90
2018-12-26T03:29:05.409Z,73.00
2018-12-26T03:31:34.658Z,73.70
2018-12-26T03:34:03.945Z,74.70
2018-12-26T03:36:33.401Z,75.40
2018-12-26T03:39:04.541Z,75.00
2018-12-26T03:41:33.829Z,75.40
2018-12-26T03:44:03.863Z,74.30
2018-12-26T03:46:33.991Z,73.80
2018-12-26T03:49:03.887Z,75.30
2018-12-26T03:51:33.140Z,74.70
2018-12-26T03:54:03.459Z,74.70
2018-12-26T03:56:34.271Z,76.20
2018-12-26T03:59:04.217Z,75.60
2018-12-26T04:01:33.939Z,75.20
2018-12-26T04:04:03.237Z,75.80
2018-12-26T04:06:32.518Z,74.50
2018-12-26T04:09:04.424Z,73.80
2018-12-26T04:11:33.701Z,73.70
2018-12-26T04:14:03.884Z,74.40
2018-12-26T04:16:33.178Z,74.90
2018-12-26T04:19:03.000Z,74.30
2018-12-26T04:21:33.813Z,74.40
2018-12-26T04:24:03.753Z,73.90
2018-12-26T04:26:33.809Z,74.10
2018-12-26T04:29:03.726Z,74.00
2018-12-26T04:31:32.983Z,74.70
2018-12-26T04:34:03.702Z,75.30
2018-12-26T04:36:33.129Z,74.40
2018-12-26T04:39:03.831Z,74.50
2018-12-26T04:41:33.137Z,73.60
2018-12-26T04:44:03.945Z,72.90
2018-12-26T04:46:33.500Z,73.30
2018-12-26T04:49:03.278Z,73.10
2018-12-26T04:51:33.434Z,72.90
2018-12-26T04:54:03.979Z,73.00
2018-12-26T04:56:33.578Z,71.60
2018-12-26T04:59:03.529Z,71.50
2018-12-26T05:01:33.377Z,71.80
2018-12-26T05:04:03.749Z,71.80
2018-12-26T05:06:34.272Z,71.60
2018-12-26T05:09:04.793Z,72.00
2018-12-26T05:11:34.455Z,72.50
2018-12-26T05:14:04.112Z,73.20
2018-12-26T05:16:36.237Z,72.80
2018-12-26T05:19:06.069Z,72.50
2018-12-26T05:21:35.806Z,72.40
2018-12-26T05:24:05.156Z,72.60
2018-12-26T05:26:35.278Z,72.20
2018-12-26T05:29:05.042Z,71.90
2018-12-26T05:31:34.340Z,72.40
2018-12-26T05:34:03.950Z,71.60
2018-12-26T05:36:33.886Z,71.50
2018-12-26T05:39:06.858Z,72.10
2018-12-26T05:41:36.149Z,72.80
2018-12-26T05:44:05.665Z,73.50
2018-12-26T05:46:35.892Z,72.70
2018-12-26T05:49:05.820Z,72.50
2018-12-26T05:51:36.346Z,72.10
2018-12-26T05:54:06.274Z,72.40
2018-12-26T05:56:36.409Z,72.90
2018-12-26T05:59:06.239Z,73.70
2018-12-26T06:01:35.807Z,74.10
2018-12-26T06:04:05.063Z,73.90
2018-12-26T06:06:34.356Z,74.30
2018-12-26T06:09:04.487Z,74.70
2018-12-26T06:11:33.756Z,75.10
2018-12-26T06:14:03.430Z,74.60
2018-12-26T06:16:33.261Z,75.10
2018-12-26T06:19:03.913Z,74.80
2018-12-26T06:21:33.762Z,75.10
2018-12-26T06:24:03.998Z,75.20
2018-12-26T06:26:33.923Z,75.30
2018-12-26T06:29:04.745Z,73.80
2018-12-26T06:31:35.522Z,73.30
2018-12-26T06:34:04.781Z,73.60
2018-12-26T06:36:34.609Z,73.70
2018-12-26T06:39:04.906Z,74.00
2018-12-26T06:41:34.178Z,74.40
2018-12-26T06:44:04.050Z,74.40
2018-12-26T06:46:34.449Z,74.80
2018-12-26T06:49:04.337Z,75.00
2018-12-26T06:51:34.172Z,75.50
2018-12-26T06:54:04.441Z,75.50
2018-12-26T06:56:33.966Z,76.60
2018-12-26T06:59:03.919Z,76.50
2018-12-26T07:01:34.227Z,76.10
2018-12-26T07:04:03.794Z,75.80
2018-12-26T07:06:34.029Z,75.00
2018-12-26T07:09:05.248Z,75.10
2018-12-26T07:11:34.510Z,74.40
2018-12-26T07:14:03.805Z,74.80
2018-12-26T07:16:33.373Z,75.10
2018-12-26T07:19:03.302Z,75.60
2018-12-26T07:21:33.128Z,75.60
2018-12-26T07:24:03.541Z,74.70
2018-12-26T07:26:33.446Z,75.80
2018-12-26T07:29:03.466Z,75.30
2018-12-26T07:31:32.757Z,74.70
2018-12-26T07:34:03.481Z,74.20
2018-12-26T07:36:33.449Z,74.10
2018-12-26T07:39:04.393Z,74.20
2018-12-26T07:41:33.682Z,73.70
2018-12-26T07:44:04.231Z,73.80
2018-12-26T07:46:35.554Z,73.30
2018-12-26T07:49:05.195Z,74.20
2018-12-26T07:51:34.901Z,76.00
2018-12-26T07:54:04.169Z,75.90
2018-12-26T07:56:34.845Z,76.40
2018-12-26T07:59:04.121Z,76.20
2018-12-26T08:01:33.576Z,76.50
2018-12-26T08:04:03.209Z,76.50
2018-12-26T08:06:33.176Z,76.50
2018-12-26T08:09:04.242Z,77.00
2018-12-26T08:11:33.797Z,77.70
2018-12-26T08:14:03.818Z,77.30
2018-12-26T08:16:34.354Z,77.80
2018-12-26T08:19:04.150Z,78.50
2018-12-26T08:21:34.134Z,77.00
2018-12-26T08:24:04.173Z,77.50
2018-12-26T08:26:33.514Z,77.30
2018-12-26T08:29:03.813Z,78.90
2018-12-26T08:31:33.778Z,78.70
2018-12-26T08:34:03.626Z,79.00
2018-12-26T08:36:33.768Z,78.70
2018-12-26T08:39:04.206Z,77.90
2018-12-26T08:41:33.466Z,78.30
2018-12-26T08:44:02.783Z,77.50
2018-12-26T08:46:32.595Z,77.70
2018-12-26T08:49:02.865Z,77.00
2018-12-26T08:51:32.448Z,77.70
2018-12-26T08:54:03.182Z,78.60
2018-12-26T08:56:32.780Z,79.20
2018-12-26T08:59:02.052Z,79.60
2018-12-26T09:01:31.357Z,79.60
2018-12-26T09:04:03.898Z,79.40
2018-12-26T09:06:33.991Z,78.80
2018-12-26T09:09:07.055Z,78.10
2018-12-26T09:11:37.005Z,77.90
2018-12-26T09:14:07.513Z,76.80
2018-12-26T09:16:37.492Z,77.70
2018-12-26T09:19:06.796Z,78.60
2018-12-26T09:21:36.113Z,79.20
2018-12-26T09:24:05.385Z,79.20
2018-12-26T09:26:34.771Z,79.00
2018-12-26T09:29:04.038Z,78.90
2018-12-26T09:31:33.423Z,78.60
2018-12-26T09:34:04.005Z,79.40
2018-12-26T09:36:33.401Z,79.00
2018-12-26T09:39:04.342Z,78.10
2018-12-26T09:41:33.946Z,77.30
2018-12-26T09:44:03.540Z,77.50
2018-12-26T09:46:33.876Z,77.40
2018-12-26T09:49:04.673Z,78.20
2018-12-26T09:51:34.649Z,78.50
2018-12-26T09:54:05.096Z,78.40
2018-12-26T09:56:34.658Z,79.00
2018-12-26T09:59:04.580Z,79.20
2018-12-26T10:01:34.677Z,79.80
2018-12-26T10:04:05.697Z,79.80
2018-12-26T10:06:35.338Z,79.30
2018-12-26T10:09:06.163Z,79.20
2018-12-26T10:11:36.037Z,81.40
2018-12-26T10:14:05.297Z,82.20
2018-12-26T10:16:35.311Z,82.10
2018-12-26T10:19:04.649Z,81.20
2018-12-26T10:21:34.515Z,80.90
2018-12-26T10:24:05.537Z,80.60
2018-12-26T10:26:35.085Z,81.10
2018-12-26T10:29:04.405Z,81.70
2018-12-26T10:31:34.085Z,82.30
2018-12-26T10:34:04.076Z,82.60
2018-12-26T10:36:33.370Z,83.30
2018-12-26T10:39:03.251Z,83.80
2018-12-26T10:41:32.509Z,84.40
2018-12-26T10:44:02.658Z,83.80
2018-12-26T10:46:31.953Z,83.00
2018-12-26T10:49:02.812Z,82.50
2018-12-26T10:51:32.089Z,81.60
2018-12-26T10:54:02.753Z,81.00
2018-12-26T10:56:33.010Z,81.50
2018-12-26T10:59:09.926Z,82.20
2018-12-26T11:01:35.076Z,81.80
2018-12-26T11:04:05.432Z,82.50
2018-12-26T11:06:34.698Z,83.30
2018-12-26T11:09:05.607Z,83.30
2018-12-26T11:11:34.878Z,83.80
2018-12-26T11:14:05.804Z,84.50
2018-12-26T11:16:35.726Z,84.20
2018-12-26T11:19:05.046Z,82.40
2018-12-26T11:21:34.935Z,82.40
2018-12-26T11:24:04.651Z,82.80
2018-12-26T11:26:34.587Z,82.50
2018-12-26T11:29:04.205Z,83.30
2018-12-26T11:31:34.233Z,83.10
2018-12-26T11:34:03.502Z,82.20
2018-12-26T11:36:45.474Z,82.80
2018-12-26T11:39:14.758Z,82.50
2018-12-26T11:41:44.101Z,83.40
2018-12-26T11:44:13.389Z,83.20
2018-12-26T11:46:42.736Z,83.30
2018-12-26T11:49:12.025Z,83.70
2018-12-26T11:51:41.309Z,84.20
2018-12-26T11:54:10.651Z,83.80
2018-12-26T11:56:39.919Z,83.50
2018-12-26T11:59:09.255Z,83.80
2018-12-26T12:01:38.593Z,83.70
2018-12-26T12:04:07.873Z,82.90
2018-12-26T12:06:37.149Z,83.70
2018-12-26T12:09:07.469Z,83.80
2018-12-26T12:11:36.747Z,85.00
2018-12-26T12:14:06.074Z,86.10
2018-12-26T12:16:35.374Z,86.40
2018-12-26T12:19:04.645Z,86.10
2018-12-26T12:21:33.979Z,85.90
2018-12-26T12:24:03.805Z,85.70
2018-12-26T12:26:33.148Z,86.50
2018-12-26T12:29:03.270Z,86.10
2018-12-26T12:31:32.571Z,85.70
2018-12-26T12:34:03.351Z,85.40
2018-12-26T12:36:32.645Z,85.00
2018-12-26T12:39:03.375Z,85.00
2018-12-26T12:41:32.647Z,84.70
2018-12-26T12:44:03.608Z,85.30
2018-12-26T12:46:33.620Z,84.90
2018-12-26T12:49:03.695Z,84.60
2018-12-26T12:51:33.045Z,83.80
2018-12-26T12:54:03.271Z,84.80
2018-12-26T12:56:32.596Z,85.10
2018-12-26T12:59:02.964Z,83.80
2018-12-26T13:01:32.252Z,84.10
2018-12-26T13:04:02.202Z,83.90
2018-12-26T13:06:31.482Z,84.70
2018-12-26T13:09:00.791Z,84.50
2018-12-26T13:11:30.047Z,84.00
2018-12-26T13:13:59.372Z,82.60
2018-12-26T13:16:28.674Z,82.90
2018-12-26T13:18:58.051Z,83.00
2018-12-26T13:21:27.338Z,83.00
2018-12-26T13:23:56.702Z,83.40
2018-12-26T13:26:26.054Z,83.60
2018-12-26T13:28:55.393Z,82.90
2018-12-26T13:31:24.734Z,82.40
2018-12-26T13:33:53.964Z,82.70
2018-12-26T13:36:23.322Z,82.50
2018-12-26T13:38:52.655Z,82.70
2018-12-26T13:41:21.959Z,83.10
2018-12-26T13:43:51.267Z,83.60
2018-12-26T13:46:20.640Z,83.90
2018-12-26T13:48:49.994Z,84.10
2018-12-26T13:51:19.293Z,83.10
2018-12-26T13:53:54.555Z,83.10
2018-12-26T13:56:23.865Z,83.00
2018-12-26T13:58:53.155Z,83.50
2018-12-26T14:01:22.768Z,83.20
2018-12-26T14:03:52.041Z,81.90
2018-12-26T14:06:21.387Z,82.10
2018-12-26T14:08:50.667Z,82.60
2018-12-26T14:11:20.017Z,82.80
2018-12-26T14:13:49.372Z,83.70
2018-12-26T14:16:18.709Z,84.60
2018-12-26T14:18:47.992Z,83.90
2018-12-26T14:21:17.330Z,84.10
2018-12-26T14:23:47.708Z,84.50
2018-12-26T14:26:17.035Z,83.50
2018-12-26T14:28:46.380Z,83.40
2018-12-26T14:31:15.723Z,83.50
2018-12-26T14:33:45.010Z,83.60
2018-12-26T14:36:14.350Z,83.50
2018-12-26T14:38:43.701Z,83.20
2018-12-26T14:41:13.378Z,83.30
2018-12-26T14:43:42.640Z,83.00
2018-12-26T14:46:11.984Z,82.10
2018-12-26T14:48:41.265Z,81.90
2018-12-26T14:51:10.631Z,81.20
2018-12-26T14:53:39.890Z,81.70
2018-12-26T14:56:09.266Z,81.80
2018-12-26T14:58:38.570Z,82.30
2018-12-26T15:01:07.862Z,83.30
2018-12-26T15:03:37.195Z,83.30
2018-12-26T15:06:06.566Z,83.20
2018-12-26T15:08:35.839Z,84.10
2018-12-26T15:11:05.138Z,83.20
2018-12-26T15:13:34.507Z,83.00
2018-12-26T15:16:03.795Z,83.00
2018-12-26T15:18:33.098Z,82.00
2018-12-26T15:21:02.465Z,82.60
2018-12-26T15:23:31.749Z,82.60
2018-12-26T15:26:02.705Z,82.80
2018-12-26T15:28:31.988Z,83.60
2018-12-26T15:31:02.758Z,83.40
2018-12-26T15:33:32.111Z,83.10
2018-12-26T15:36:01.415Z,81.90
2018-12-26T15:38:30.811Z,82.40
2018-12-26T15:41:00.194Z,82.40
2018-12-26T15:43:29.542Z,82.30
2018-12-26T15:45:58.821Z,83.30
2018-12-26T15:48:28.162Z,83.30
2018-12-26T15:50:57.440Z,83.70
2018-12-26T15:53:26.723Z,84.00
2018-12-26T15:55:56.061Z,84.70
2018-12-26T15:58:25.362Z,84.80
2018-12-26T16:00:54.694Z,84.80
2018-12-26T16:03:24.052Z,84.90
2018-12-26T16:05:53.350Z,84.60
2018-12-26T16:08:22.625Z,84.60
2018-12-26T16:10:52.039Z,85.10
2018-12-26T16:13:21.321Z,85.20
2018-12-26T16:15:52.776Z,85.20
2018-12-26T16:18:21.577Z,85.50
2018-12-26T16:20:51.618Z,85.10
2018-12-26T16:23:20.926Z,85.80
2018-12-26T16:25:50.217Z,86.30
2018-12-26T16:28:19.559Z,86.10
2018-12-26T16:30:48.859Z,85.80
2018-12-26T16:33:18.201Z,85.70
2018-12-26T16:35:47.517Z,85.50
2018-12-26T16:38:16.816Z,85.70
2018-12-26T16:40:46.159Z,85.80
2018-12-26T16:43:15.458Z,85.40
2018-12-26T16:45:44.819Z,85.40
2018-12-26T16:48:14.097Z,84.70
2018-12-26T16:50:43.447Z,84.60
2018-12-26T16:53:13.012Z,85.70
2018-12-26T16:55:42.294Z,84.90
2018-12-26T16:58:11.644Z,84.30
2018-12-26T17:00:41.510Z,84.30
2018-12-26T17:03:10.866Z,84.70
2018-12-26T17:05:40.160Z,83.80
2018-12-26T17:08:10.029Z,83.70
2018-12-26T17:10:39.386Z,83.80
2018-12-26T17:13:09.689Z,84.60
2018-12-26T17:15:39.028Z,85.90
2018-12-26T17:18:08.354Z,85.00
2018-12-26T17:20:37.971Z,84.10
2018-12-26T17:23:07.331Z,84.10
2018-12-26T17:25:36.627Z,83.80
2018-12-26T17:28:06.280Z,83.80
2018-12-26T17:30:35.634Z,85.00
2018-12-26T17:33:05.161Z,85.70
2018-12-26T17:35:35.511Z,85.70
2018-12-26T17:38:04.888Z,84.70
2018-12-26T17:40:34.178Z,83.90
2018-12-26T17:43:03.467Z,84.40
2018-12-26T17:45:32.815Z,85.30
2018-12-26T17:48:04.617Z,85.50
2018-12-26T17:50:45.605Z,85.20
2018-12-26T17:53:33.585Z,85.10
2018-12-26T17:56:15.490Z,85.00
2018-12-26T17:58:57.083Z,85.40
2018-12-26T18:01:35.937Z,85.10
2018-12-26T18:04:05.412Z,85.90
2018-12-26T18:06:34.716Z,86.30
2018-12-26T18:09:06.489Z,85.50
2018-12-26T18:11:35.751Z,84.90
2018-12-26T18:14:05.109Z,84.30
2018-12-26T18:16:34.521Z,83.80
2018-12-26T18:19:04.819Z,83.00
2018-12-26T18:21:34.156Z,83.30
2018-12-26T18:24:03.731Z,84.60
2018-12-26T18:26:33.326Z,85.10
2018-12-26T18:29:02.656Z,84.70
2018-12-26T18:31:32.060Z,84.70
2018-12-26T18:34:01.361Z,84.30
2018-12-26T18:36:31.276Z,84.00
2018-12-26T18:39:00.559Z,84.20
2018-12-26T18:41:32.281Z,84.00
2018-12-26T18:44:01.551Z,84.00
2018-12-26T18:46:30.848Z,83.80
2018-12-26T18:49:00.195Z,83.90
2018-12-26T18:51:29.524Z,83.90
2018-12-26T18:53:59.176Z,85.00
2018-12-26T18:56:28.545Z,84.80
2018-12-26T18:58:57.840Z,84.00
2018-12-26T19:01:30.767Z,84.40
2018-12-26T19:03:58.107Z,83.90
2018-12-26T19:06:27.388Z,83.70
2018-12-26T19:08:57.038Z,83.20
2018-12-26T19:11:26.618Z,83.10
2018-12-26T19:13:55.920Z,83.30
2018-12-26T19:16:25.296Z,83.60
2018-12-26T19:18:54.661Z,84.00
2018-12-26T19:21:24.024Z,84.00
2018-12-26T19:23:53.307Z,83.70
2018-12-26T19:26:22.708Z,84.00
2018-12-26T19:28:52.064Z,84.30
2018-12-26T19:31:21.429Z,84.70
2018-12-26T19:33:50.724Z,84.60
2018-12-26T19:36:20.019Z,84.20
2018-12-26T19:38:49.393Z,84.30
2018-12-26T19:41:18.737Z,83.60
2018-12-26T19:43:48.088Z,83.20
2018-12-26T19:46:17.396Z,83.50
2018-12-26T19:48:46.718Z,82.90
2018-12-26T19:51:16.259Z,83.10
2018-12-26T19:53:45.615Z,83.00
2018-12-26T19:56:14.903Z,83.20
2018-12-26T19:58:44.278Z,83.50
2018-12-26T20:01:13.640Z,83.60
2018-12-26T20:03:43.004Z,83.60
2018-12-26T20:06:12.304Z,83.30
2018-12-26T20:08:41.677Z,83.20
2018-12-26T20:11:11.137Z,83.60
2018-12-26T20:13:40.414Z,83.50
2018-12-26T20:16:09.791Z,83.10
2018-12-26T20:18:39.165Z,83.10
2018-12-26T20:21:08.649Z,83.30
2018-12-26T20:23:37.965Z,83.20
2018-12-26T20:26:07.327Z,83.50
2018-12-26T20:28:36.690Z,83.70
2018-12-26T20:31:06.050Z,84.30
2018-12-26T20:33:35.330Z,83.80
2018-12-26T20:36:05.218Z,84.20
2018-12-26T20:38:34.503Z,83.60
2018-12-26T20:41:06.559Z,82.90
2018-12-26T20:43:35.895Z,83.60
2018-12-26T20:46:05.584Z,82.80
2018-12-26T20:48:34.862Z,82.20
2018-12-26T20:51:05.180Z,81.70
2018-12-26T20:53:34.516Z,81.40
2018-12-26T20:56:05.240Z,80.80
2018-12-26T20:58:34.606Z,81.60
2018-12-26T21:01:05.547Z,81.80
2018-12-26T21:03:34.962Z,81.80
2018-12-26T21:06:04.255Z,81.90
2018-12-26T21:08:34.966Z,81.70
2018-12-26T21:11:04.504Z,82.20
2018-12-26T21:13:33.806Z,82.60
2018-12-26T21:16:03.097Z,82.10
2018-12-26T21:18:32.462Z,82.60
2018-12-26T21:21:03.615Z,82.90
2018-12-26T21:23:32.963Z,82.20
2018-12-26T21:26:02.749Z,81.80
2018-12-26T21:28:32.077Z,82.10
2018-12-26T21:31:03.507Z,81.90
2018-12-26T21:33:32.802Z,81.70
2018-12-26T21:36:03.863Z,81.50
2018-12-26T21:38:33.221Z,81.60
2018-12-26T21:41:02.684Z,81.40
2018-12-26T21:43:32.002Z,81.00
2018-12-26T21:46:02.943Z,80.80
2018-12-26T21:48:32.300Z,80.40
2018-12-26T21:51:02.011Z,80.20
2018-12-26T21:53:31.320Z,79.80
2018-12-26T21:56:00.681Z,80.10
2018-12-26T21:58:31.327Z,80.00
2018-12-26T22:01:00.632Z,79.80
2018-12-26T22:03:31.778Z,79.90
2018-12-26T22:06:01.960Z,79.90
2018-12-26T22:08:31.349Z,80.40
2018-12-26T22:13:48.600Z,80.30
2018-12-26T22:16:18.629Z,80.30
2018-12-26T22:18:47.942Z,80.40
2018-12-26T22:21:17.291Z,80.50
2018-12-26T22:23:46.582Z,80.40
2018-12-26T22:26:15.919Z,80.00
2018-12-26T22:28:45.954Z,80.10
2018-12-26T22:31:15.240Z,80.80
2018-12-26T22:33:45.227Z,80.00
2018-12-26T22:36:14.563Z,80.40
2018-12-26T22:38:43.863Z,80.00
2018-12-26T22:41:13.152Z,79.90
2018-12-26T22:43:42.482Z,80.00
2018-12-26T22:46:11.783Z,79.60
2018-12-26T22:48:41.148Z,79.30
2018-12-26T22:51:10.812Z,79.00
2018-12-26T22:53:42.233Z,79.10
2018-12-26T22:56:11.578Z,78.80
2018-12-26T22:58:40.917Z,78.80
2018-12-26T23:01:10.332Z,79.00
2018-12-26T23:03:39.614Z,79.00
2018-12-26T23:06:08.926Z,79.00
2018-12-26T23:08:38.278Z,78.80
2018-12-26T23:11:07.647Z,79.00
2018-12-26T23:13:36.974Z,79.90
